sensor_id;sensor_type;location;lat;lon;timestamp;P1;durP1;ratioP1;P2;durP2;ratioP2
15526;SDS011;7865;50.918;4.510;2023-02-18T00:02:02;21.27;;;12.67;;
15526;SDS011;7865;50.918;4.510;2023-02-18T00:07:05;19.87;;;12.10;;
15526;SDS011;7865;50.918;4.510;2023-02-18T00:12:07;16.07;;;10.13;;
15526;SDS011;7865;50.918;4.510;2023-02-18T00:17:09;18.30;;;11.07;;
15526;SDS011;7865;50.918;4.510;2023-02-18T00:22:11;20.13;;;10.67;;
15526;SDS011;7865;50.918;4.510;2023-02-18T00:27:12;22.37;;;11.03;;
15526;SDS011;7865;50.918;4.510;2023-02-18T00:32:15;20.93;;;11.57;;
15526;SDS011;7865;50.918;4.510;2023-02-18T00:37:17;15.90;;;9.17;;
15526;SDS011;7865;50.918;4.510;2023-02-18T00:42:19;19.67;;;9.67;;
15526;SDS011;7865;50.918;4.510;2023-02-18T00:47:21;17.30;;;9.57;;
15526;SDS011;7865;50.918;4.510;2023-02-18T00:52:23;13.83;;;8.13;;
15526;SDS011;7865;50.918;4.510;2023-02-18T00:57:25;14.90;;;8.53;;
15526;SDS011;7865;50.918;4.510;2023-02-18T01:02:27;13.37;;;7.40;;
15526;SDS011;7865;50.918;4.510;2023-02-18T01:07:29;11.27;;;8.07;;
15526;SDS011;7865;50.918;4.510;2023-02-18T01:12:31;15.10;;;7.40;;
15526;SDS011;7865;50.918;4.510;2023-02-18T01:17:33;11.10;;;6.17;;
15526;SDS011;7865;50.918;4.510;2023-02-18T01:22:39;10.87;;;6.07;;
15526;SDS011;7865;50.918;4.510;2023-02-18T01:27:41;12.10;;;5.60;;
15526;SDS011;7865;50.918;4.510;2023-02-18T01:32:44;8.63;;;5.07;;
15526;SDS011;7865;50.918;4.510;2023-02-18T01:37:46;6.30;;;4.00;;
15526;SDS011;7865;50.918;4.510;2023-02-18T01:42:49;5.07;;;3.70;;
15526;SDS011;7865;50.918;4.510;2023-02-18T01:47:51;5.17;;;3.10;;
15526;SDS011;7865;50.918;4.510;2023-02-18T01:52:53;4.07;;;2.60;;
15526;SDS011;7865;50.918;4.510;2023-02-18T01:57:55;2.63;;;2.00;;
15526;SDS011;7865;50.918;4.510;2023-02-18T02:02:57;4.10;;;2.50;;
15526;SDS011;7865;50.918;4.510;2023-02-18T02:07:59;2.87;;;2.40;;
15526;SDS011;7865;50.918;4.510;2023-02-18T02:13:07;3.20;;;2.17;;
15526;SDS011;7865;50.918;4.510;2023-02-18T02:18:30;2.23;;;1.53;;
15526;SDS011;7865;50.918;4.510;2023-02-18T02:34:57;2.87;;;2.30;;
15526;SDS011;7865;50.918;4.510;2023-02-18T02:55:40;2.73;;;1.90;;
15526;SDS011;7865;50.918;4.510;2023-02-18T03:11:22;1.60;;;1.30;;
15526;SDS011;7865;50.918;4.510;2023-02-18T03:16:34;1.40;;;1.30;;
15526;SDS011;7865;50.918;4.510;2023-02-18T03:21:49;1.40;;;1.30;;
15526;SDS011;7865;50.918;4.510;2023-02-18T03:27:04;2.83;;;1.20;;
15526;SDS011;7865;50.918;4.510;2023-02-18T03:32:14;2.07;;;1.60;;
15526;SDS011;7865;50.918;4.510;2023-02-18T03:37:19;0.77;;;0.77;;
15526;SDS011;7865;50.918;4.510;2023-02-18T03:42:26;2.20;;;1.00;;
15526;SDS011;7865;50.918;4.510;2023-02-18T03:47:29;1.50;;;1.20;;
15526;SDS011;7865;50.918;4.510;2023-02-18T03:52:31;1.63;;;1.30;;
15526;SDS011;7865;50.918;4.510;2023-02-18T03:57:33;1.50;;;1.20;;
15526;SDS011;7865;50.918;4.510;2023-02-18T04:02:35;1.70;;;1.40;;
15526;SDS011;7865;50.918;4.510;2023-02-18T04:07:37;1.97;;;1.30;;
15526;SDS011;7865;50.918;4.510;2023-02-18T04:12:39;1.90;;;1.60;;
15526;SDS011;7865;50.918;4.510;2023-02-18T04:17:41;1.37;;;1.20;;
15526;SDS011;7865;50.918;4.510;2023-02-18T04:22:43;2.00;;;1.13;;
15526;SDS011;7865;50.918;4.510;2023-02-18T04:27:45;1.70;;;1.40;;
15526;SDS011;7865;50.918;4.510;2023-02-18T04:32:47;1.80;;;1.30;;
15526;SDS011;7865;50.918;4.510;2023-02-18T04:37:49;2.07;;;1.37;;
15526;SDS011;7865;50.918;4.510;2023-02-18T04:42:51;1.70;;;1.60;;
15526;SDS011;7865;50.918;4.510;2023-02-18T04:47:53;1.87;;;1.67;;
15526;SDS011;7865;50.918;4.510;2023-02-18T04:52:55;1.93;;;1.50;;
15526;SDS011;7865;50.918;4.510;2023-02-18T04:57:57;2.33;;;1.87;;
15526;SDS011;7865;50.918;4.510;2023-02-18T05:02:59;2.63;;;1.60;;
15526;SDS011;7865;50.918;4.510;2023-02-18T05:08:01;2.33;;;1.80;;
15526;SDS011;7865;50.918;4.510;2023-02-18T05:13:04;2.73;;;1.70;;
15526;SDS011;7865;50.918;4.510;2023-02-18T05:18:06;1.90;;;1.67;;
15526;SDS011;7865;50.918;4.510;2023-02-18T05:23:08;1.97;;;1.63;;
15526;SDS011;7865;50.918;4.510;2023-02-18T05:28:10;2.33;;;1.33;;
15526;SDS011;7865;50.918;4.510;2023-02-18T05:33:12;1.40;;;1.20;;
15526;SDS011;7865;50.918;4.510;2023-02-18T05:38:14;2.00;;;1.43;;
15526;SDS011;7865;50.918;4.510;2023-02-18T05:43:16;2.10;;;1.50;;
15526;SDS011;7865;50.918;4.510;2023-02-18T05:48:18;2.57;;;1.07;;
15526;SDS011;7865;50.918;4.510;2023-02-18T05:53:20;4.33;;;1.83;;
15526;SDS011;7865;50.918;4.510;2023-02-18T05:58:22;5.07;;;1.93;;
15526;SDS011;7865;50.918;4.510;2023-02-18T06:03:23;5.50;;;1.73;;
15526;SDS011;7865;50.918;4.510;2023-02-18T06:08:25;6.17;;;2.47;;
15526;SDS011;7865;50.918;4.510;2023-02-18T06:13:28;8.40;;;2.23;;
15526;SDS011;7865;50.918;4.510;2023-02-18T06:18:29;12.27;;;2.57;;
15526;SDS011;7865;50.918;4.510;2023-02-18T06:23:31;7.70;;;2.03;;
15526;SDS011;7865;50.918;4.510;2023-02-18T06:28:33;9.77;;;2.03;;
15526;SDS011;7865;50.918;4.510;2023-02-18T06:33:35;11.17;;;2.60;;
15526;SDS011;7865;50.918;4.510;2023-02-18T06:38:38;10.33;;;2.57;;
15526;SDS011;7865;50.918;4.510;2023-02-18T06:43:42;13.77;;;2.97;;
15526;SDS011;7865;50.918;4.510;2023-02-18T06:48:44;9.33;;;2.50;;
15526;SDS011;7865;50.918;4.510;2023-02-18T06:53:46;15.17;;;2.57;;
15526;SDS011;7865;50.918;4.510;2023-02-18T06:58:48;5.63;;;2.03;;
15526;SDS011;7865;50.918;4.510;2023-02-18T07:03:49;12.83;;;3.33;;
15526;SDS011;7865;50.918;4.510;2023-02-18T07:08:51;8.87;;;2.47;;
15526;SDS011;7865;50.918;4.510;2023-02-18T07:13:53;9.53;;;1.90;;
15526;SDS011;7865;50.918;4.510;2023-02-18T07:18:55;8.63;;;2.17;;
15526;SDS011;7865;50.918;4.510;2023-02-18T07:23:57;8.50;;;1.97;;
15526;SDS011;7865;50.918;4.510;2023-02-18T07:28:59;16.23;;;2.80;;
15526;SDS011;7865;50.918;4.510;2023-02-18T07:34:01;11.27;;;3.33;;
15526;SDS011;7865;50.918;4.510;2023-02-18T07:39:03;11.27;;;3.37;;
15526;SDS011;7865;50.918;4.510;2023-02-18T07:44:05;12.83;;;2.97;;
15526;SDS011;7865;50.918;4.510;2023-02-18T07:49:07;11.10;;;3.20;;
15526;SDS011;7865;50.918;4.510;2023-02-18T07:54:10;13.47;;;3.17;;
15526;SDS011;7865;50.918;4.510;2023-02-18T07:59:12;15.77;;;3.47;;
15526;SDS011;7865;50.918;4.510;2023-02-18T08:04:14;10.60;;;3.27;;
15526;SDS011;7865;50.918;4.510;2023-02-18T08:09:17;11.10;;;3.20;;
15526;SDS011;7865;50.918;4.510;2023-02-18T08:14:19;12.50;;;4.50;;
15526;SDS011;7865;50.918;4.510;2023-02-18T08:19:21;7.13;;;2.30;;
15526;SDS011;7865;50.918;4.510;2023-02-18T08:24:24;15.87;;;2.97;;
15526;SDS011;7865;50.918;4.510;2023-02-18T08:29:26;6.07;;;2.03;;
15526;SDS011;7865;50.918;4.510;2023-02-18T08:34:28;13.57;;;2.73;;
15526;SDS011;7865;50.918;4.510;2023-02-18T08:39:33;10.40;;;3.53;;
15526;SDS011;7865;50.918;4.510;2023-02-18T08:44:40;4.90;;;1.80;;
15526;SDS011;7865;50.918;4.510;2023-02-18T08:49:42;13.00;;;2.37;;
15526;SDS011;7865;50.918;4.510;2023-02-18T08:54:44;9.77;;;2.07;;
15526;SDS011;7865;50.918;4.510;2023-02-18T08:59:46;8.33;;;2.27;;
15526;SDS011;7865;50.918;4.510;2023-02-18T09:04:49;7.77;;;2.73;;
15526;SDS011;7865;50.918;4.510;2023-02-18T09:09:51;9.10;;;2.50;;
15526;SDS011;7865;50.918;4.510;2023-02-18T09:14:52;9.80;;;2.10;;
15526;SDS011;7865;50.918;4.510;2023-02-18T09:19:55;2.83;;;1.10;;
15526;SDS011;7865;50.918;4.510;2023-02-18T09:24:57;6.33;;;1.70;;
15526;SDS011;7865;50.918;4.510;2023-02-18T09:29:59;4.60;;;1.60;;
15526;SDS011;7865;50.918;4.510;2023-02-18T09:35:02;4.87;;;1.60;;
15526;SDS011;7865;50.918;4.510;2023-02-18T09:40:05;5.33;;;1.53;;
15526;SDS011;7865;50.918;4.510;2023-02-18T09:45:09;3.00;;;1.10;;
15526;SDS011;7865;50.918;4.510;2023-02-18T09:50:18;5.37;;;1.60;;
15526;SDS011;7865;50.918;4.510;2023-02-18T09:55:34;4.20;;;1.40;;
15526;SDS011;7865;50.918;4.510;2023-02-18T10:00:47;4.30;;;1.20;;
15526;SDS011;7865;50.918;4.510;2023-02-18T10:06:06;5.23;;;1.83;;
15526;SDS011;7865;50.918;4.510;2023-02-18T10:11:14;8.77;;;1.87;;
15526;SDS011;7865;50.918;4.510;2023-02-18T10:16:25;8.37;;;2.10;;
15526;SDS011;7865;50.918;4.510;2023-02-18T10:21:29;7.00;;;1.53;;
15526;SDS011;7865;50.918;4.510;2023-02-18T10:26:36;7.50;;;2.00;;
15526;SDS011;7865;50.918;4.510;2023-02-18T10:31:40;8.07;;;1.60;;
15526;SDS011;7865;50.918;4.510;2023-02-18T10:36:48;9.87;;;5.40;;
15526;SDS011;7865;50.918;4.510;2023-02-18T10:52:20;9.30;;;1.60;;
15526;SDS011;7865;50.918;4.510;2023-02-18T10:57:23;5.50;;;1.60;;
15526;SDS011;7865;50.918;4.510;2023-02-18T11:02:29;6.93;;;2.33;;
15526;SDS011;7865;50.918;4.510;2023-02-18T11:07:33;7.03;;;2.13;;
15526;SDS011;7865;50.918;4.510;2023-02-18T11:12:45;7.90;;;2.07;;
15526;SDS011;7865;50.918;4.510;2023-02-18T11:17:51;6.53;;;1.70;;
15526;SDS011;7865;50.918;4.510;2023-02-18T11:22:56;7.40;;;1.37;;
15526;SDS011;7865;50.918;4.510;2023-02-18T11:28:00;4.97;;;1.80;;
15526;SDS011;7865;50.918;4.510;2023-02-18T11:33:20;6.93;;;1.70;;
15526;SDS011;7865;50.918;4.510;2023-02-18T11:38:28;7.00;;;1.83;;
15526;SDS011;7865;50.918;4.510;2023-02-18T11:43:44;14.13;;;3.07;;
15526;SDS011;7865;50.918;4.510;2023-02-18T11:48:49;4.77;;;1.57;;
15526;SDS011;7865;50.918;4.510;2023-02-18T11:59:21;6.13;;;1.57;;
15526;SDS011;7865;50.918;4.510;2023-02-18T12:04:27;6.90;;;1.90;;
15526;SDS011;7865;50.918;4.510;2023-02-18T12:09:35;9.80;;;2.97;;
15526;SDS011;7865;50.918;4.510;2023-02-18T12:14:39;9.40;;;1.77;;
15526;SDS011;7865;50.918;4.510;2023-02-18T12:52:30;9.87;;;1.73;;
15526;SDS011;7865;50.918;4.510;2023-02-18T13:19:12;7.87;;;2.33;;
15526;SDS011;7865;50.918;4.510;2023-02-18T13:24:25;7.77;;;2.50;;
15526;SDS011;7865;50.918;4.510;2023-02-18T13:29:34;4.43;;;2.00;;
15526;SDS011;7865;50.918;4.510;2023-02-18T13:40:25;7.03;;;2.37;;
15526;SDS011;7865;50.918;4.510;2023-02-18T13:45:31;9.43;;;3.17;;
15526;SDS011;7865;50.918;4.510;2023-02-18T13:50:41;5.87;;;2.60;;
15526;SDS011;7865;50.918;4.510;2023-02-18T13:55:59;7.87;;;2.60;;
15526;SDS011;7865;50.918;4.510;2023-02-18T14:01:06;7.00;;;2.60;;
15526;SDS011;7865;50.918;4.510;2023-02-18T14:06:17;5.87;;;2.43;;
15526;SDS011;7865;50.918;4.510;2023-02-18T14:11:28;9.83;;;2.60;;
15526;SDS011;7865;50.918;4.510;2023-02-18T14:17:11;8.70;;;2.63;;
15526;SDS011;7865;50.918;4.510;2023-02-18T14:22:28;8.67;;;2.80;;
15526;SDS011;7865;50.918;4.510;2023-02-18T14:27:32;9.63;;;3.07;;
15526;SDS011;7865;50.918;4.510;2023-02-18T14:32:35;4.47;;;2.57;;
15526;SDS011;7865;50.918;4.510;2023-02-18T14:54:17;5.17;;;2.43;;
15526;SDS011;7865;50.918;4.510;2023-02-18T14:59:22;5.90;;;2.43;;
15526;SDS011;7865;50.918;4.510;2023-02-18T15:04:26;9.93;;;2.60;;
15526;SDS011;7865;50.918;4.510;2023-02-18T15:09:30;5.07;;;2.20;;
15526;SDS011;7865;50.918;4.510;2023-02-18T15:14:36;7.40;;;3.00;;
15526;SDS011;7865;50.918;4.510;2023-02-18T15:19:41;7.63;;;3.20;;
15526;SDS011;7865;50.918;4.510;2023-02-18T15:24:45;7.73;;;2.73;;
15526;SDS011;7865;50.918;4.510;2023-02-18T15:29:48;10.03;;;3.30;;
15526;SDS011;7865;50.918;4.510;2023-02-18T15:34:53;8.77;;;2.73;;
15526;SDS011;7865;50.918;4.510;2023-02-18T15:40:03;6.40;;;3.17;;
15526;SDS011;7865;50.918;4.510;2023-02-18T15:50:25;5.83;;;2.70;;
15526;SDS011;7865;50.918;4.510;2023-02-18T15:55:39;7.07;;;3.43;;
15526;SDS011;7865;50.918;4.510;2023-02-18T16:00:51;7.13;;;3.10;;
15526;SDS011;7865;50.918;4.510;2023-02-18T16:06:08;9.67;;;2.90;;
15526;SDS011;7865;50.918;4.510;2023-02-18T16:11:23;7.83;;;3.50;;
15526;SDS011;7865;50.918;4.510;2023-02-18T16:16:28;7.80;;;3.73;;
15526;SDS011;7865;50.918;4.510;2023-02-18T16:21:43;6.97;;;3.60;;
15526;SDS011;7865;50.918;4.510;2023-02-18T16:26:45;8.87;;;4.13;;
15526;SDS011;7865;50.918;4.510;2023-02-18T16:31:47;9.23;;;3.73;;
15526;SDS011;7865;50.918;4.510;2023-02-18T16:36:50;8.93;;;3.67;;
15526;SDS011;7865;50.918;4.510;2023-02-18T16:42:11;14.20;;;4.53;;
15526;SDS011;7865;50.918;4.510;2023-02-18T16:47:14;8.10;;;4.40;;
15526;SDS011;7865;50.918;4.510;2023-02-18T16:52:17;10.57;;;3.40;;
15526;SDS011;7865;50.918;4.510;2023-02-18T16:57:20;10.10;;;3.50;;
15526;SDS011;7865;50.918;4.510;2023-02-18T17:02:22;9.90;;;3.50;;
15526;SDS011;7865;50.918;4.510;2023-02-18T17:07:25;9.33;;;4.07;;
15526;SDS011;7865;50.918;4.510;2023-02-18T17:12:26;5.27;;;3.17;;
15526;SDS011;7865;50.918;4.510;2023-02-18T17:17:28;7.33;;;4.43;;
15526;SDS011;7865;50.918;4.510;2023-02-18T17:22:30;8.20;;;4.13;;
15526;SDS011;7865;50.918;4.510;2023-02-18T17:27:32;8.97;;;4.10;;
15526;SDS011;7865;50.918;4.510;2023-02-18T17:32:34;10.13;;;5.00;;
15526;SDS011;7865;50.918;4.510;2023-02-18T17:37:36;6.67;;;3.80;;
15526;SDS011;7865;50.918;4.510;2023-02-18T17:42:38;8.33;;;4.00;;
15526;SDS011;7865;50.918;4.510;2023-02-18T17:47:40;5.23;;;4.20;;
15526;SDS011;7865;50.918;4.510;2023-02-18T17:52:42;8.27;;;4.93;;
15526;SDS011;7865;50.918;4.510;2023-02-18T17:57:44;10.97;;;4.83;;
15526;SDS011;7865;50.918;4.510;2023-02-18T18:02:47;8.80;;;4.77;;
15526;SDS011;7865;50.918;4.510;2023-02-18T18:07:49;8.40;;;5.50;;
15526;SDS011;7865;50.918;4.510;2023-02-18T18:12:53;9.27;;;4.80;;
15526;SDS011;7865;50.918;4.510;2023-02-18T18:17:56;12.27;;;5.43;;
15526;SDS011;7865;50.918;4.510;2023-02-18T18:23:00;8.67;;;4.73;;
15526;SDS011;7865;50.918;4.510;2023-02-18T18:28:03;8.57;;;4.97;;
15526;SDS011;7865;50.918;4.510;2023-02-18T18:33:20;8.97;;;6.03;;
15526;SDS011;7865;50.918;4.510;2023-02-18T18:38:27;7.40;;;4.83;;
15526;SDS011;7865;50.918;4.510;2023-02-18T18:43:30;7.87;;;5.40;;
15526;SDS011;7865;50.918;4.510;2023-02-18T18:48:33;6.20;;;5.17;;
15526;SDS011;7865;50.918;4.510;2023-02-18T18:53:35;7.00;;;5.87;;
15526;SDS011;7865;50.918;4.510;2023-02-18T18:58:38;10.27;;;6.43;;
15526;SDS011;7865;50.918;4.510;2023-02-18T19:03:40;8.00;;;5.53;;
15526;SDS011;7865;50.918;4.510;2023-02-18T19:08:43;7.50;;;5.87;;
15526;SDS011;7865;50.918;4.510;2023-02-18T19:13:46;9.20;;;6.07;;
15526;SDS011;7865;50.918;4.510;2023-02-18T19:18:48;6.93;;;5.20;;
15526;SDS011;7865;50.918;4.510;2023-02-18T19:23:50;5.93;;;4.87;;
15526;SDS011;7865;50.918;4.510;2023-02-18T19:28:52;6.90;;;5.50;;
15526;SDS011;7865;50.918;4.510;2023-02-18T19:33:54;6.83;;;4.83;;
15526;SDS011;7865;50.918;4.510;2023-02-18T19:38:56;5.70;;;5.03;;
15526;SDS011;7865;50.918;4.510;2023-02-18T19:43:58;6.73;;;6.03;;
15526;SDS011;7865;50.918;4.510;2023-02-18T19:49:00;5.23;;;4.73;;
15526;SDS011;7865;50.918;4.510;2023-02-18T19:54:02;5.63;;;5.07;;
15526;SDS011;7865;50.918;4.510;2023-02-18T19:59:04;6.67;;;5.33;;
15526;SDS011;7865;50.918;4.510;2023-02-18T20:04:07;5.37;;;4.83;;
15526;SDS011;7865;50.918;4.510;2023-02-18T20:09:09;6.63;;;5.20;;
15526;SDS011;7865;50.918;4.510;2023-02-18T20:14:11;9.70;;;6.50;;
15526;SDS011;7865;50.918;4.510;2023-02-18T20:19:13;7.73;;;5.67;;
15526;SDS011;7865;50.918;4.510;2023-02-18T20:24:15;11.03;;;6.80;;
15526;SDS011;7865;50.918;4.510;2023-02-18T20:29:17;7.73;;;5.87;;
15526;SDS011;7865;50.918;4.510;2023-02-18T20:34:22;6.30;;;5.40;;
15526;SDS011;7865;50.918;4.510;2023-02-18T20:39:24;8.10;;;5.47;;
15526;SDS011;7865;50.918;4.510;2023-02-18T20:44:26;8.60;;;5.67;;
15526;SDS011;7865;50.918;4.510;2023-02-18T20:49:29;5.20;;;3.77;;
15526;SDS011;7865;50.918;4.510;2023-02-18T20:54:31;5.63;;;4.23;;
15526;SDS011;7865;50.918;4.510;2023-02-18T20:59:33;5.87;;;3.77;;
15526;SDS011;7865;50.918;4.510;2023-02-18T21:04:36;7.57;;;4.70;;
15526;SDS011;7865;50.918;4.510;2023-02-18T21:09:38;5.00;;;4.07;;
15526;SDS011;7865;50.918;4.510;2023-02-18T21:14:40;5.60;;;4.03;;
15526;SDS011;7865;50.918;4.510;2023-02-18T21:19:42;4.00;;;3.53;;
15526;SDS011;7865;50.918;4.510;2023-02-18T21:24:45;4.53;;;3.33;;
15526;SDS011;7865;50.918;4.510;2023-02-18T21:29:50;4.27;;;3.63;;
15526;SDS011;7865;50.918;4.510;2023-02-18T21:34:53;4.10;;;3.37;;
15526;SDS011;7865;50.918;4.510;2023-02-18T21:39:55;5.17;;;4.07;;
15526;SDS011;7865;50.918;4.510;2023-02-18T21:45:00;3.60;;;3.30;;
15526;SDS011;7865;50.918;4.510;2023-02-18T21:50:03;4.27;;;3.27;;
15526;SDS011;7865;50.918;4.510;2023-02-18T21:55:07;5.23;;;3.60;;
15526;SDS011;7865;50.918;4.510;2023-02-18T22:00:10;5.67;;;4.00;;
15526;SDS011;7865;50.918;4.510;2023-02-18T22:05:21;4.53;;;3.83;;
15526;SDS011;7865;50.918;4.510;2023-02-18T22:10:26;4.07;;;3.50;;
15526;SDS011;7865;50.918;4.510;2023-02-18T22:15:28;6.37;;;3.87;;
15526;SDS011;7865;50.918;4.510;2023-02-18T22:20:30;4.87;;;3.77;;
15526;SDS011;7865;50.918;4.510;2023-02-18T22:25:33;5.17;;;3.90;;
15526;SDS011;7865;50.918;4.510;2023-02-18T22:30:37;7.13;;;4.47;;
15526;SDS011;7865;50.918;4.510;2023-02-18T22:35:40;5.80;;;3.60;;
15526;SDS011;7865;50.918;4.510;2023-02-18T22:40:42;5.47;;;3.50;;
15526;SDS011;7865;50.918;4.510;2023-02-18T22:45:44;5.17;;;3.70;;
15526;SDS011;7865;50.918;4.510;2023-02-18T22:50:46;8.73;;;3.87;;
15526;SDS011;7865;50.918;4.510;2023-02-18T22:55:48;6.63;;;3.93;;
15526;SDS011;7865;50.918;4.510;2023-02-18T23:00:50;6.47;;;4.40;;
15526;SDS011;7865;50.918;4.510;2023-02-18T23:05:53;8.03;;;4.10;;
15526;SDS011;7865;50.918;4.510;2023-02-18T23:11:03;6.17;;;4.23;;
15526;SDS011;7865;50.918;4.510;2023-02-18T23:22:31;8.47;;;4.80;;
15526;SDS011;7865;50.918;4.510;2023-02-18T23:27:35;6.20;;;4.83;;
15526;SDS011;7865;50.918;4.510;2023-02-18T23:32:37;6.20;;;4.47;;
15526;SDS011;7865;50.918;4.510;2023-02-18T23:37:39;10.07;;;5.70;;
15526;SDS011;7865;50.918;4.510;2023-02-18T23:43:00;10.07;;;5.40;;
15526;SDS011;7865;50.918;4.510;2023-02-18T23:48:02;6.83;;;4.93;;
15526;SDS011;7865;50.918;4.510;2023-02-18T23:53:04;9.50;;;4.87;;
15526;SDS011;7865;50.918;4.510;2023-02-18T23:58:06;9.03;;;3.87;;
